Time;durP1;ratioP1;P1;durP2;ratioP2;P2;SDS_P1;SDS_P2;PMS_P1;PMS_P2;Temp;Humidity;BMP_temperature;BMP_pressure;BME280_temperature;BME280_humidity;BME280_pressure;Samples;Min_cycle;Max_cycle;Signal;HPM_P1;HPM_P2
2022/10/19 00:01:20;;;;;;;6.38;2.05;;;;;;;;;;5072652;28;20131;-70
2022/10/19 00:03:48;;;;;;;8.75;2.25;;;;;;;;;;5073808;28;20560;-70
2022/10/19 00:06:24;;;;;;;5.18;2.28;;;;;;;;;;5073724;28;20053;-70
2022/10/19 00:08:51;;;;;;;10.82;2.78;;;;;;;;;;5073666;28;20058;-70
2022/10/19 00:11:18;;;;;;;6.82;2.45;;;;;;;;;;5073594;28;20491;-70
2022/10/19 00:13:44;;;;;;;5.00;2.35;;;;;;;;;;5073707;28;20058;-70
2022/10/19 00:16:12;;;;;;;7.45;2.10;;;;;;;;;;5073633;28;20502;-70
2022/10/19 00:18:38;;;;;;;6.20;1.90;;;;;;;;;;5073465;28;20036;-70
2022/10/19 00:21:06;;;;;;;8.60;2.50;;;;;;;;;;5073670;28;20127;-70
2022/10/19 00:23:32;;;;;;;;;;;;;;;;;;5073726;28;20058;-70
2022/10/19 00:25:59;;;;;;;8.68;2.00;;;;;;;;;;5072725;28;19999;-70
2022/10/19 00:28:26;;;;;;;12.15;2.58;;;;;;;;;;5073233;28;20056;-70
2022/10/19 00:30:52;;;;;;;9.55;2.40;;;;;;;;;;5073415;28;20493;-70
2022/10/19 00:33:21;;;;;;;10.35;2.33;;;;;;;;;;5073086;28;20124;-70
2022/10/19 00:35:48;;;;;;;9.45;2.25;;;;;;;;;;5072838;28;20459;-70
2022/10/19 00:38:16;;;;;;;11.02;2.55;;;;;;;;;;5073063;28;20488;-70
2022/10/19 00:40:42;;;;;;;9.95;2.10;;;;;;;;;;5072987;28;20084;-70
2022/10/19 00:43:14;;;;;;;9.65;2.80;;;;;;;;;;5073108;28;20048;-70
2022/10/19 00:45:40;;;;;;;7.57;2.50;;;;;;;;;;5072888;28;20052;-70
2022/10/19 00:48:08;;;;;;;7.43;3.30;;;;;;;;;;5072856;28;20484;-70
2022/10/19 00:50:34;;;;;;;6.00;2.30;;;;;;;;;;5072787;28;20150;-70
2022/10/19 00:53:01;;;;;;;10.10;2.92;;;;;;;;;;5072935;28;20129;-70
2022/10/19 00:55:27;;;;;;;6.88;2.70;;;;;;;;;;5072796;28;20128;-70
2022/10/19 00:57:54;;;;;;;9.88;2.83;;;;;;;;;;5072770;28;20143;-70
2022/10/19 01:00:20;;;;;;;7.72;2.78;;;;;;;;;;5072669;28;20131;-70
2022/10/19 01:02:47;;;;;;;8.00;2.90;;;;;;;;;;5072480;28;20052;-70
2022/10/19 01:05:14;;;;;;;7.18;2.67;;;;;;;;;;5072493;28;20136;-70
2022/10/19 01:07:41;;;;;;;;;;;;;;;;;;5073122;28;20444;-70
2022/10/19 01:10:08;;;;;;;5.25;2.42;;;;;;;;;;5071460;28;19956;-70
2022/10/19 01:12:49;;;;;;;10.23;2.80;;;;;;;;;;5072503;28;20131;-70
2022/10/19 01:15:18;;;;;;;10.77;2.83;;;;;;;;;;5072370;28;20044;-70
2022/10/19 01:17:51;;;;;;;7.22;2.60;;;;;;;;;;5071521;28;20411;-70
2022/10/19 01:20:29;;;;;;;7.05;2.53;;;;;;;;;;5060047;28;20047;-70
2022/10/19 01:22:56;;;;;;;8.85;2.63;;;;;;;;;;5072399;28;20135;-70
2022/10/19 01:25:34;;;;;;;9.30;2.60;;;;;;;;;;5072271;28;20049;-70
2022/10/19 01:28:01;;;;;;;9.00;2.83;;;;;;;;;;5072282;28;20063;-70
2022/10/19 01:30:33;;;;;;;8.75;2.80;;;;;;;;;;5070943;28;20131;-70
2022/10/19 01:33:02;;;;;;;7.13;2.70;;;;;;;;;;5072273;28;20049;-70
2022/10/19 01:35:42;;;;;;;8.57;2.92;;;;;;;;;;5071750;28;20472;-70
2022/10/19 01:38:22;;;;;;;9.02;2.83;;;;;;;;;;5072267;28;20131;-70
2022/10/19 01:41:07;;;;;;;5.70;2.72;;;;;;;;;;5071857;28;20082;-70
2022/10/19 01:43:41;;;;;;;6.13;2.85;;;;;;;;;;5072192;28;20136;-70
2022/10/19 01:46:10;;;;;;;9.30;3.10;;;;;;;;;;5072183;28;20057;-70
2022/10/19 01:48:37;;;;;;;6.53;2.75;;;;;;;;;;5071832;28;20059;-70
2022/10/19 01:51:04;;;;;;;;;;;;;;;;;;5072415;28;20471;-70
2022/10/19 01:53:32;;;;;;;7.25;2.88;;;;;;;;;;5071740;28;19999;-70
2022/10/19 01:56:00;;;;;;;9.70;3.00;;;;;;;;;;5071924;28;20120;-70
2022/10/19 01:58:29;;;;;;;6.57;3.45;;;;;;;;;;5071701;28;20520;-70
2022/10/19 02:00:57;;;;;;;9.40;3.42;;;;;;;;;;5064750;28;20070;-70
2022/10/19 02:03:24;;;;;;;6.55;3.10;;;;;;;;;;5053095;28;20127;-70
2022/10/19 02:05:51;;;;;;;13.33;3.77;;;;;;;;;;5071768;28;20049;-70
2022/10/19 02:08:22;;;;;;;8.85;4.25;;;;;;;;;;5071644;28;20725;-70
2022/10/19 02:10:48;;;;;;;8.55;3.33;;;;;;;;;;5071823;28;20127;-70
2022/10/19 02:13:15;;;;;;;9.52;3.88;;;;;;;;;;5071659;28;20159;-70
2022/10/19 02:15:44;;;;;;;7.85;3.65;;;;;;;;;;5071570;28;20123;-70
2022/10/19 02:18:16;;;;;;;9.15;3.58;;;;;;;;;;5071446;28;20092;-70
2022/10/19 02:20:42;;;;;;;9.35;3.70;;;;;;;;;;5071402;28;20047;-70
2022/10/19 02:23:09;;;;;;;8.45;3.88;;;;;;;;;;5071789;28;20219;-70
2022/10/19 02:25:35;;;;;;;10.60;3.63;;;;;;;;;;5071334;28;20572;-70
2022/10/19 02:28:02;;;;;;;7.70;3.50;;;;;;;;;;5071663;28;20056;-70
2022/10/19 02:30:29;;;;;;;11.00;3.60;;;;;;;;;;5070200;28;20059;-70
2022/10/19 02:32:55;;;;;;;8.27;3.20;;;;;;;;;;5071470;28;20155;-70
2022/10/19 02:35:22;;;;;;;7.82;3.53;;;;;;;;;;5071582;28;20127;-70
2022/10/19 02:37:48;;;;;;;7.72;3.30;;;;;;;;;;5071257;28;20127;-70
2022/10/19 02:40:14;;;;;;;14.13;3.85;;;;;;;;;;5071604;28;20127;-70
2022/10/19 02:42:46;;;;;;;15.35;3.67;;;;;;;;;;5071219;28;20402;-70
2022/10/19 02:45:20;;;;;;;11.00;3.65;;;;;;;;;;5071320;28;20173;-70
2022/10/19 02:47:59;;;;;;;8.98;3.42;;;;;;;;;;5072402;28;20056;-70
2022/10/19 02:50:25;;;;;;;9.43;3.55;;;;;;;;;;5075535;28;20059;-70
2022/10/19 02:52:52;;;;;;;9.27;3.33;;;;;;;;;;5074958;28;20127;-70
2022/10/19 02:55:18;;;;;;;8.30;3.42;;;;;;;;;;5074995;28;20492;-70
2022/10/19 02:57:45;;;;;;;10.55;3.20;;;;;;;;;;5075032;28;20132;-70
2022/10/19 03:00:11;;;;;;;11.23;3.80;;;;;;;;;;5075056;28;20139;-70
2022/10/19 03:02:37;;;;;;;12.20;3.78;;;;;;;;;;5074836;28;20123;-70
2022/10/19 03:05:04;;;;;;;8.63;3.40;;;;;;;;;;5074897;28;20068;-70
2022/10/19 03:07:30;;;;;;;11.13;3.53;;;;;;;;;;5073782;28;20461;-70
2022/10/19 03:09:58;;;;;;;10.98;3.78;;;;;;;;;;5073698;28;20082;-70
2022/10/19 03:12:24;;;;;;;12.60;3.95;;;;;;;;;;5074953;28;20459;-70
2022/10/19 03:14:51;;;;;;;9.85;3.97;;;;;;;;;;5074623;28;20448;-70
2022/10/19 03:17:17;;;;;;;11.48;3.60;;;;;;;;;;5074481;28;20123;-70
2022/10/19 03:19:44;;;;;;;11.10;4.43;;;;;;;;;;5074539;28;20412;-70
2022/10/19 03:22:11;;;;;;;11.15;3.92;;;;;;;;;;5074779;28;20129;-70
2022/10/19 03:24:38;;;;;;;12.10;4.03;;;;;;;;;;5074764;28;20127;-70
2022/10/19 03:27:04;;;;;;;10.05;3.45;;;;;;;;;;5074318;28;20144;-70
2022/10/19 03:29:31;;;;;;;11.02;4.00;;;;;;;;;;5074370;28;20136;-70
2022/10/19 03:31:57;;;;;;;9.38;3.90;;;;;;;;;;5074612;28;20385;-70
2022/10/19 03:34:23;;;;;;;10.68;4.63;;;;;;;;;;5074216;28;20051;-70
2022/10/19 03:36:50;;;;;;;12.13;4.22;;;;;;;;;;5074199;28;20064;-70
2022/10/19 03:39:16;;;;;;;11.57;4.38;;;;;;;;;;5074318;28;20052;-70
2022/10/19 03:41:43;;;;;;;11.90;3.38;;;;;;;;;;5073202;28;20088;-70
2022/10/19 03:44:10;;;;;;;7.20;3.47;;;;;;;;;;5074390;28;20123;-70
2022/10/19 03:46:37;;;;;;;8.57;3.90;;;;;;;;;;5074299;28;20159;-71
2022/10/19 03:49:03;;;;;;;10.52;4.00;;;;;;;;;;5074253;28;20131;-70
2022/10/19 03:51:30;;;;;;;11.73;3.72;;;;;;;;;;5073094;28;20127;-70
2022/10/19 03:53:58;;;;;;;9.60;4.55;;;;;;;;;;5074094;28;20135;-70
2022/10/19 03:56:24;;;;;;;;;;;;;;;;;;5074562;28;20051;-70
2022/10/19 03:58:51;;;;;;;11.02;3.58;;;;;;;;;;5073361;28;20469;-70
2022/10/19 04:01:22;;;;;;;13.27;3.97;;;;;;;;;;5073259;28;20127;-70
2022/10/19 04:03:56;;;;;;;9.85;3.92;;;;;;;;;;5074092;28;20059;-70
2022/10/19 04:06:24;;;;;;;8.70;3.72;;;;;;;;;;5073692;28;20064;-70
2022/10/19 04:08:50;;;;;;;;;;;;;;;;;;5074267;28;20074;-70
2022/10/19 04:11:18;;;;;;;10.23;3.80;;;;;;;;;;5073830;28;20003;-70
2022/10/19 04:13:46;;;;;;;8.85;3.67;;;;;;;;;;5073645;28;20141;-70
2022/10/19 04:16:12;;;;;;;11.73;4.35;;;;;;;;;;5073847;28;20041;-70
2022/10/19 04:18:39;;;;;;;9.88;3.90;;;;;;;;;;5073401;28;20047;-70
2022/10/19 04:21:06;;;;;;;9.93;3.63;;;;;;;;;;5073344;28;20079;-70
2022/10/19 04:23:34;;;;;;;10.60;3.83;;;;;;;;;;5073548;28;20048;-70
2022/10/19 04:26:01;;;;;;;7.65;3.65;;;;;;;;;;5073577;28;20079;-70
2022/10/19 04:28:27;;;;;;;8.25;3.53;;;;;;;;;;5073245;28;20139;-70
2022/10/19 04:30:54;;;;;;;9.45;3.17;;;;;;;;;;5073136;28;20063;-70
2022/10/19 04:33:20;;;;;;;9.13;4.15;;;;;;;;;;5073116;28;20568;-70
2022/10/19 04:35:47;;;;;;;8.68;3.55;;;;;;;;;;5072822;28;20203;-70
2022/10/19 04:38:13;;;;;;;10.13;3.50;;;;;;;;;;5072242;28;20098;-70
2022/10/19 04:40:39;;;;;;;8.95;3.00;;;;;;;;;;5073160;28;20148;-71
2022/10/19 04:43:06;;;;;;;8.32;3.35;;;;;;;;;;5073224;28;20063;-70
2022/10/19 04:45:34;;;;;;;10.60;3.33;;;;;;;;;;5072915;28;20135;-70
2022/10/19 04:48:00;;;;;;;;;;;;;;;;;;5073611;28;20079;-70
2022/10/19 04:50:27;;;;;;;8.63;3.15;;;;;;;;;;5071893;28;20007;-70
2022/10/19 04:52:53;;;;;;;7.90;3.10;;;;;;;;;;5071408;28;20051;-70
2022/10/19 04:55:20;;;;;;;7.88;3.83;;;;;;;;;;5072885;28;20419;-69
2022/10/19 04:57:46;;;;;;;9.43;3.15;;;;;;;;;;5072707;28;20074;-69
2022/10/19 05:00:13;;;;;;;10.82;3.42;;;;;;;;;;5072710;28;20127;-70
2022/10/19 05:02:43;;;;;;;7.55;3.05;;;;;;;;;;5072639;28;20143;-70
2022/10/19 05:05:11;;;;;;;12.27;3.63;;;;;;;;;;5072853;28;20106;-70
2022/10/19 05:07:37;;;;;;;13.32;4.22;;;;;;;;;;5072812;28;20052;-70
2022/10/19 05:10:04;;;;;;;9.88;3.17;;;;;;;;;;5072293;28;20136;-70
2022/10/19 05:12:30;;;;;;;8.40;3.53;;;;;;;;;;5072204;28;20148;-70
2022/10/19 05:14:57;;;;;;;9.70;3.17;;;;;;;;;;5072372;28;20127;-70
2022/10/19 05:17:23;;;;;;;7.82;3.50;;;;;;;;;;5044605;28;20432;-70
2022/10/19 05:19:50;;;;;;;9.10;3.35;;;;;;;;;;5072544;28;20059;-70
2022/10/19 05:22:16;;;;;;;8.45;3.42;;;;;;;;;;5072310;28;20049;-70
2022/10/19 05:24:42;;;;;;;6.10;3.65;;;;;;;;;;5072134;28;20131;-70
2022/10/19 05:27:09;;;;;;;6.65;3.67;;;;;;;;;;5072353;28;20056;-70
2022/10/19 05:29:35;;;;;;;7.40;3.70;;;;;;;;;;5070893;28;20044;-70
2022/10/19 05:32:01;;;;;;;11.32;3.85;;;;;;;;;;5071964;28;20136;-70
2022/10/19 05:34:28;;;;;;;8.75;3.95;;;;;;;;;;5071971;28;20040;-70
2022/10/19 05:36:55;;;;;;;8.77;3.50;;;;;;;;;;5071929;28;20522;-70
2022/10/19 05:39:22;;;;;;;10.88;4.40;;;;;;;;;;5072084;28;20411;-70
2022/10/19 05:41:48;;;;;;;10.43;4.47;;;;;;;;;;5072226;28;20041;-70
2022/10/19 05:44:16;;;;;;;9.80;3.90;;;;;;;;;;5072288;28;20157;-70
2022/10/19 05:46:43;;;;;;;7.53;3.75;;;;;;;;;;5071827;28;20070;-70
2022/10/19 05:49:13;;;;;;;7.27;4.07;;;;;;;;;;5072050;28;20135;-70
2022/10/19 05:51:39;;;;;;;8.82;3.97;;;;;;;;;;5071782;28;20128;-70
2022/10/19 05:54:06;;;;;;;9.35;4.18;;;;;;;;;;5071727;28;20044;-70
2022/10/19 05:56:33;;;;;;;8.23;4.10;;;;;;;;;;5072000;28;20079;-71
2022/10/19 05:59:01;;;;;;;9.13;4.20;;;;;;;;;;5071566;28;20052;-69
2022/10/19 06:01:28;;;;;;;7.45;4.18;;;;;;;;;;5071725;28;20124;-69
2022/10/19 06:03:55;;;;;;;12.00;4.80;;;;;;;;;;5072064;28;20115;-70
2022/10/19 06:06:22;;;;;;;10.15;4.20;;;;;;;;;;5071844;28;20324;-70
2022/10/19 06:08:49;;;;;;;11.13;4.57;;;;;;;;;;5070605;28;20136;-70
2022/10/19 06:11:20;;;;;;;11.95;4.03;;;;;;;;;;5071520;28;20587;-70
2022/10/19 06:13:49;;;;;;;9.70;3.83;;;;;;;;;;5071426;28;20052;-70
2022/10/19 06:16:16;;;;;;;9.25;4.15;;;;;;;;;;5071500;28;20479;-70
2022/10/19 06:18:43;;;;;;;8.52;4.15;;;;;;;;;;5071746;28;20072;-70
2022/10/19 06:21:11;;;;;;;9.33;3.90;;;;;;;;;;5060971;28;20132;-69
2022/10/19 06:23:37;;;;;;;6.82;3.58;;;;;;;;;;5051862;28;20098;-68
2022/10/19 06:26:08;;;;;;;10.80;4.10;;;;;;;;;;5054163;28;20102;-67
2022/10/19 06:28:35;;;;;;;9.77;4.00;;;;;;;;;;5055427;28;20139;-77
2022/10/19 06:31:02;;;;;;;9.60;4.15;;;;;;;;;;5064983;28;20088;-70
2022/10/19 06:33:34;;;;;;;10.60;4.40;;;;;;;;;;5075324;28;20056;-74
2022/10/19 06:36:11;;;;;;;8.65;3.75;;;;;;;;;;5073902;28;20052;-70
2022/10/19 06:38:38;;;;;;;8.67;4.10;;;;;;;;;;5075664;28;20059;-69
2022/10/19 06:41:04;;;;;;;10.63;4.03;;;;;;;;;;5075623;28;20109;-69
2022/10/19 06:43:31;;;;;;;15.38;4.40;;;;;;;;;;5075409;28;20127;-71
2022/10/19 06:45:57;;;;;;;10.80;4.55;;;;;;;;;;5075192;28;20403;-71
2022/10/19 06:48:24;;;;;;;9.18;3.72;;;;;;;;;;5075560;28;20080;-73
2022/10/19 06:51:00;;;;;;;13.20;4.32;;;;;;;;;;5054559;28;20514;-73
2022/10/19 06:53:27;;;;;;;8.10;4.38;;;;;;;;;;5068517;28;20048;-74
2022/10/19 06:55:54;;;;;;;;;;;;;;;;;;5060035;28;20049;-74
2022/10/19 06:58:20;;;;;;;10.02;4.30;;;;;;;;;;5074936;28;20007;-73
2022/10/19 07:00:52;;;;;;;12.35;4.60;;;;;;;;;;5073986;28;20087;-74
2022/10/19 07:03:19;;;;;;;8.98;4.25;;;;;;;;;;5074433;28;20049;-74
2022/10/19 07:05:51;;;;;;;10.70;4.68;;;;;;;;;;5075015;28;20444;-74
2022/10/19 07:08:17;;;;;;;10.95;4.68;;;;;;;;;;5075048;28;20079;-74
2022/10/19 07:10:48;;;;;;;12.65;4.88;;;;;;;;;;5074741;28;20053;-74
2022/10/19 07:13:14;;;;;;;11.40;4.43;;;;;;;;;;5074840;28;20135;-73
2022/10/19 07:15:40;;;;;;;11.20;5.30;;;;;;;;;;5074211;28;20040;-74
2022/10/19 07:18:07;;;;;;;12.00;5.78;;;;;;;;;;5074748;28;20087;-73
2022/10/19 07:20:33;;;;;;;11.88;5.00;;;;;;;;;;5074678;28;20036;-73
2022/10/19 07:23:00;;;;;;;12.77;5.60;;;;;;;;;;5074524;28;20048;-72
2022/10/19 07:25:26;;;;;;;12.85;5.85;;;;;;;;;;5074722;28;20403;-73
2022/10/19 07:27:53;;;;;;;11.17;5.57;;;;;;;;;;5074751;28;20063;-73
2022/10/19 07:30:19;;;;;;;12.88;5.97;;;;;;;;;;5074414;28;20076;-73
2022/10/19 07:32:46;;;;;;;14.73;5.82;;;;;;;;;;5074371;28;20131;-73
2022/10/19 07:35:12;;;;;;;11.57;5.72;;;;;;;;;;5073959;28;20079;-73
2022/10/19 07:37:39;;;;;;;15.65;5.95;;;;;;;;;;5073953;28;20135;-73
2022/10/19 07:40:05;;;;;;;12.65;6.13;;;;;;;;;;5074226;28;20580;-73
2022/10/19 07:42:32;;;;;;;14.43;6.40;;;;;;;;;;5074404;28;20131;-73
2022/10/19 07:44:59;;;;;;;12.73;6.68;;;;;;;;;;5074193;28;20051;-73
2022/10/19 07:47:25;;;;;;;16.00;6.38;;;;;;;;;;5074297;28;20117;-73
2022/10/19 07:49:51;;;;;;;14.52;6.78;;;;;;;;;;5074353;28;20063;-73
2022/10/19 07:52:18;;;;;;;10.18;6.03;;;;;;;;;;5073979;28;20049;-73
2022/10/19 07:54:48;;;;;;;12.10;6.85;;;;;;;;;;5073917;28;20044;-73
2022/10/19 07:57:14;;;;;;;14.35;6.50;;;;;;;;;;5074285;28;20049;-73
2022/10/19 07:59:41;;;;;;;16.05;6.55;;;;;;;;;;5073845;28;20491;-73
2022/10/19 08:02:13;;;;;;;14.13;6.63;;;;;;;;;;5074010;28;20056;-73
2022/10/19 08:04:40;;;;;;;16.33;6.25;;;;;;;;;;5073777;28;20048;-73
2022/10/19 08:07:26;;;;;;;15.60;6.40;;;;;;;;;;5073942;28;20059;-73
2022/10/19 08:09:52;;;;;;;15.57;6.25;;;;;;;;;;5073848;28;20048;-73
2022/10/19 08:12:19;;;;;;;10.83;5.60;;;;;;;;;;5073906;28;20076;-73
2022/10/19 08:14:46;;;;;;;13.32;6.50;;;;;;;;;;5073716;28;20048;-73
2022/10/19 08:17:16;;;;;;;9.75;5.30;;;;;;;;;;5073782;28;20056;-73
2022/10/19 08:19:43;;;;;;;10.48;6.00;;;;;;;;;;5073591;28;20102;-73
2022/10/19 08:22:09;;;;;;;13.52;5.85;;;;;;;;;;5073285;28;20076;-73
2022/10/19 08:24:36;;;;;;;9.73;5.97;;;;;;;;;;5073416;28;20406;-73
2022/10/19 08:27:02;;;;;;;10.85;6.25;;;;;;;;;;5073174;28;20084;-73
2022/10/19 08:29:29;;;;;;;10.70;5.57;;;;;;;;;;5073502;28;20127;-73
2022/10/19 08:31:57;;;;;;;13.38;6.05;;;;;;;;;;5073515;28;20048;-73
2022/10/19 08:34:24;;;;;;;15.88;6.15;;;;;;;;;;5073250;28;20137;-73
2022/10/19 08:36:50;;;;;;;10.50;6.00;;;;;;;;;;5072988;28;20135;-73
2022/10/19 08:39:17;;;;;;;11.15;5.47;;;;;;;;;;5073031;28;20079;-74
2022/10/19 08:41:46;;;;;;;10.55;5.70;;;;;;;;;;5073000;28;20052;-73
2022/10/19 08:44:27;;;;;;;11.57;5.30;;;;;;;;;;5072995;28;20131;-73
2022/10/19 08:46:59;;;;;;;7.32;4.43;;;;;;;;;;5072381;28;20470;-73
2022/10/19 08:49:29;;;;;;;11.02;4.72;;;;;;;;;;5072779;28;20101;-74
2022/10/19 08:52:00;;;;;;;9.75;5.38;;;;;;;;;;5072976;28;20468;-73
2022/10/19 08:54:31;;;;;;;10.75;4.97;;;;;;;;;;5072869;28;20124;-74
2022/10/19 08:57:18;;;;;;;10.90;4.68;;;;;;;;;;5072681;28;20084;-73
2022/10/19 08:59:45;;;;;;;13.10;4.93;;;;;;;;;;5072638;28;20091;-73
2022/10/19 09:02:24;;;;;;;11.48;4.70;;;;;;;;;;5072619;28;20087;-74
2022/10/19 09:04:57;;;;;;;10.77;5.25;;;;;;;;;;5072696;28;20052;-73
2022/10/19 09:07:28;;;;;;;12.60;4.63;;;;;;;;;;5072839;28;20062;-73
2022/10/19 09:09:56;;;;;;;11.90;4.30;;;;;;;;;;5072647;28;20132;-73
2022/10/19 09:12:30;;;;;;;8.80;4.72;;;;;;;;;;5072476;28;20131;-73
2022/10/19 09:15:00;;;;;;;12.25;4.80;;;;;;;;;;5072262;28;20049;-74
2022/10/19 09:17:26;;;;;;;12.45;4.57;;;;;;;;;;5072518;28;20047;-73
2022/10/19 09:19:53;;;;;;;10.43;4.50;;;;;;;;;;5072220;28;20052;-73
2022/10/19 09:22:19;;;;;;;9.05;3.67;;;;;;;;;;5072187;28;20123;-73
2022/10/19 09:24:49;;;;;;;10.48;4.18;;;;;;;;;;5072525;28;20127;-74
2022/10/19 09:27:20;;;;;;;10.10;4.32;;;;;;;;;;5058207;28;20127;-73
2022/10/19 09:29:49;;;;;;;9.30;3.35;;;;;;;;;;5072362;28;20499;-73
2022/10/19 09:32:21;;;;;;;11.10;3.95;;;;;;;;;;5072182;28;20135;-73
2022/10/19 09:34:52;;;;;;;7.75;3.50;;;;;;;;;;5071926;28;20587;-73
2022/10/19 09:37:19;;;;;;;8.20;3.72;;;;;;;;;;5071768;28;20484;-73
2022/10/19 09:39:52;;;;;;;7.10;3.80;;;;;;;;;;5072148;28;20048;-73
2022/10/19 09:42:21;;;;;;;8.15;3.45;;;;;;;;;;5071810;28;20056;-73
2022/10/19 09:44:49;;;;;;;6.07;3.55;;;;;;;;;;5071867;28;20136;-73
2022/10/19 09:47:38;;;;;;;9.70;3.58;;;;;;;;;;5072065;28;20062;-72
2022/10/19 09:50:07;;;;;;;7.70;3.33;;;;;;;;;;5071872;28;20080;-72
2022/10/19 09:52:35;;;;;;;6.32;3.53;;;;;;;;;;5071914;28;20056;-72
2022/10/19 09:55:01;;;;;;;6.20;2.75;;;;;;;;;;5071809;28;20049;-73
2022/10/19 09:57:28;;;;;;;7.22;3.13;;;;;;;;;;5071859;28;20048;-73
2022/10/19 09:59:54;;;;;;;6.80;2.72;;;;;;;;;;5072127;28;20085;-73
2022/10/19 10:02:27;;;;;;;8.68;2.88;;;;;;;;;;5071918;28;20147;-73
2022/10/19 10:04:55;;;;;;;7.80;2.50;;;;;;;;;;5071536;28;20185;-73
2022/10/19 10:07:24;;;;;;;5.50;2.80;;;;;;;;;;5071499;28;20052;-73
2022/10/19 10:09:51;;;;;;;9.93;3.10;;;;;;;;;;5071709;28;20049;-73
2022/10/19 10:12:17;;;;;;;6.70;2.95;;;;;;;;;;5071899;28;20060;-73
2022/10/19 10:14:44;;;;;;;7.70;2.75;;;;;;;;;;5071529;28;20451;-73
2022/10/19 10:17:22;;;;;;;7.07;2.78;;;;;;;;;;5070239;28;20402;-73
2022/10/19 10:20:01;;;;;;;7.28;2.35;;;;;;;;;;5071769;28;20052;-73
2022/10/19 10:22:29;;;;;;;6.28;2.28;;;;;;;;;;5071404;28;20051;-73
2022/10/19 10:24:56;;;;;;;7.38;2.50;;;;;;;;;;5071436;28;20052;-73
2022/10/19 10:27:30;;;;;;;6.17;2.30;;;;;;;;;;5071466;28;20510;-74
2022/10/19 10:29:57;;;;;;;7.15;2.67;;;;;;;;;;5071402;28;20087;-73
2022/10/19 10:32:24;;;;;;;6.32;2.10;;;;;;;;;;5071666;28;20155;-73
2022/10/19 10:35:01;;;;;;;5.30;2.50;;;;;;;;;;5071298;28;20055;-73
2022/10/19 10:37:29;;;;;;;4.85;2.20;;;;;;;;;;5071229;28;20197;-73
2022/10/19 10:39:56;;;;;;;6.28;2.40;;;;;;;;;;5071586;28;20047;-73
2022/10/19 10:42:33;;;;;;;5.78;2.28;;;;;;;;;;5071133;28;20052;-73
2022/10/19 10:45:00;;;;;;;5.32;2.65;;;;;;;;;;5071454;28;20056;-73
2022/10/19 10:47:28;;;;;;;3.65;2.15;;;;;;;;;;5071319;28;20127;-73
2022/10/19 10:50:00;;;;;;;6.63;2.55;;;;;;;;;;5071305;28;20055;-73
2022/10/19 10:52:27;;;;;;;7.20;2.10;;;;;;;;;;5071023;28;20140;-73
2022/10/19 10:54:57;;;;;;;5.03;2.38;;;;;;;;;;5069791;28;20515;-73
2022/10/19 10:57:24;;;;;;;7.38;2.28;;;;;;;;;;5071172;28;20080;-73
2022/10/19 11:00:02;;;;;;;7.38;2.90;;;;;;;;;;5070995;28;20058;-73
2022/10/19 11:02:41;;;;;;;7.15;2.90;;;;;;;;;;5071077;28;20626;-73
2022/10/19 11:05:16;;;;;;;6.38;2.72;;;;;;;;;;5071101;28;20136;-73
2022/10/19 11:07:45;;;;;;;5.82;2.90;;;;;;;;;;5071223;28;20053;-72
2022/10/19 11:10:19;;;;;;;5.10;2.80;;;;;;;;;;5074077;28;20047;-73
2022/10/19 11:12:48;;;;;;;7.07;2.80;;;;;;;;;;5074883;28;20131;-73
2022/10/19 11:15:21;;;;;;;2.65;2.25;;;;;;;;;;5074548;28;20591;-73
2022/10/19 11:17:52;;;;;;;6.88;3.08;;;;;;;;;;5074932;28;20408;-73
2022/10/19 11:20:20;;;;;;;5.75;2.45;;;;;;;;;;5073250;28;20131;-73
2022/10/19 11:22:55;;;;;;;4.20;2.30;;;;;;;;;;5074702;28;20045;-73
2022/10/19 11:25:31;;;;;;;7.10;2.45;;;;;;;;;;5074486;28;20127;-73
2022/10/19 11:28:03;;;;;;;5.55;2.17;;;;;;;;;;5074472;28;20133;-73
2022/10/19 11:30:33;;;;;;;6.07;2.45;;;;;;;;;;5074228;28;20063;-73
2022/10/19 11:33:05;;;;;;;5.47;2.30;;;;;;;;;;5074391;28;20059;-73
2022/10/19 11:35:40;;;;;;;4.15;2.20;;;;;;;;;;5074359;28;20044;-73
2022/10/19 11:38:07;;;;;;;4.82;2.40;;;;;;;;;;5074223;28;20151;-73
2022/10/19 11:41:08;;;;;;;5.55;2.20;;;;;;;;;;5074191;28;20086;-73
2022/10/19 11:43:43;;;;;;;6.50;2.70;;;;;;;;;;5074137;28;20084;-73
2022/10/19 11:46:28;;;;;;;6.23;3.00;;;;;;;;;;5074074;28;20131;-73
2022/10/19 11:48:55;;;;;;;3.70;2.05;;;;;;;;;;5072849;28;20652;-73
2022/10/19 11:51:30;;;;;;;5.85;2.28;;;;;;;;;;5074254;28;20131;-73
2022/10/19 11:53:59;;;;;;;5.68;2.50;;;;;;;;;;5074051;28;20136;-73
2022/10/19 11:56:27;;;;;;;4.13;2.63;;;;;;;;;;5074101;28;20063;-73
2022/10/19 11:59:19;;;;;;;6.85;2.67;;;;;;;;;;5073929;28;20062;-73
2022/10/19 12:01:53;;;;;;;7.30;2.63;;;;;;;;;;5073800;28;20567;-73
2022/10/19 12:04:38;;;;;;;6.63;2.42;;;;;;;;;;5074117;28;20052;-74
2022/10/19 12:07:23;;;;;;;5.28;2.58;;;;;;;;;;5073777;28;20084;-73
2022/10/19 12:09:50;;;;;;;5.68;2.35;;;;;;;;;;5073941;28;20250;-73
2022/10/19 12:12:25;;;;;;;6.32;2.30;;;;;;;;;;5072680;28;20170;-73
2022/10/19 12:14:59;;;;;;;8.30;2.63;;;;;;;;;;5073855;28;20088;-74
2022/10/19 12:17:28;;;;;;;5.97;2.50;;;;;;;;;;5073730;28;20128;-73
2022/10/19 12:19:57;;;;;;;5.97;2.80;;;;;;;;;;5073632;28;20399;-74
2022/10/19 12:22:27;;;;;;;6.40;2.83;;;;;;;;;;5073118;28;20047;-74
2022/10/19 12:24:54;;;;;;;7.18;2.47;;;;;;;;;;5073446;28;20128;-73
2022/10/19 12:27:27;;;;;;;5.78;2.30;;;;;;;;;;5073597;28;20101;-74
2022/10/19 12:29:54;;;;;;;6.50;3.00;;;;;;;;;;5073352;28;20095;-73
2022/10/19 12:32:20;;;;;;;;;;;;;;;;;;5072342;28;20384;-74
2022/10/19 12:34:49;;;;;;;5.40;2.38;;;;;;;;;;5073247;28;20007;-74
2022/10/19 12:37:25;;;;;;;6.97;2.47;;;;;;;;;;5072957;28;20135;-74
2022/10/19 12:39:55;;;;;;;6.78;2.92;;;;;;;;;;5073432;28;20461;-74
2022/10/19 12:42:28;;;;;;;6.18;3.00;;;;;;;;;;5073001;28;20044;-74
2022/10/19 12:45:04;;;;;;;4.82;2.22;;;;;;;;;;5072987;28;20135;-74
2022/10/19 12:47:31;;;;;;;4.40;2.22;;;;;;;;;;5055228;28;20119;-74
2022/10/19 12:49:58;;;;;;;6.70;2.10;;;;;;;;;;5072860;28;20119;-74
2022/10/19 12:52:24;;;;;;;;;;;;;;;;;;5073167;28;20083;-74
2022/10/19 12:54:51;;;;;;;7.15;2.03;;;;;;;;;;5073139;28;19963;-74
2022/10/19 12:57:20;;;;;;;5.20;2.10;;;;;;;;;;5072682;28;20132;-74
2022/10/19 12:59:58;;;;;;;4.65;1.88;;;;;;;;;;5072644;28;20095;-74
2022/10/19 13:02:27;;;;;;;3.83;1.90;;;;;;;;;;5072824;28;20052;-74
2022/10/19 13:04:54;;;;;;;4.40;2.08;;;;;;;;;;5072780;28;20117;-74
2022/10/19 13:07:20;;;;;;;5.65;1.90;;;;;;;;;;5072496;28;20049;-74
2022/10/19 13:09:47;;;;;;;3.75;1.77;;;;;;;;;;5072551;28;20127;-74
2022/10/19 13:12:14;;;;;;;6.15;1.92;;;;;;;;;;5072461;28;20044;-74
2022/10/19 13:14:50;;;;;;;4.38;2.10;;;;;;;;;;5072951;28;20063;-74
2022/10/19 13:17:39;;;;;;;3.97;1.80;;;;;;;;;;5072239;28;20507;-74
2022/10/19 13:20:12;;;;;;;7.30;2.47;;;;;;;;;;5072584;28;20048;-74
2022/10/19 13:22:39;;;;;;;6.68;2.10;;;;;;;;;;5072598;28;20075;-74
2022/10/19 13:25:17;;;;;;;4.07;1.80;;;;;;;;;;5072179;28;20056;-73
2022/10/19 13:27:44;;;;;;;4.97;2.00;;;;;;;;;;5072209;28;20045;-74
2022/10/19 13:30:29;;;;;;;4.07;1.70;;;;;;;;;;5072246;28;20048;-74
2022/10/19 13:32:56;;;;;;;4.25;1.73;;;;;;;;;;5071787;28;20044;-74
2022/10/19 13:35:22;;;;;;;4.55;1.70;;;;;;;;;;5072160;28;20128;-74
2022/10/19 13:38:07;;;;;;;3.22;1.70;;;;;;;;;;5071910;28;20048;-74
2022/10/19 13:40:57;;;;;;;5.68;1.98;;;;;;;;;;5071870;28;20044;-73
2022/10/19 13:43:24;;;;;;;5.82;1.90;;;;;;;;;;5072192;28;20049;-74
2022/10/19 13:46:01;;;;;;;6.25;2.13;;;;;;;;;;5072087;28;20060;-73
2022/10/19 13:48:36;;;;;;;5.95;1.67;;;;;;;;;;5072077;28;20063;-74
2022/10/19 13:51:26;;;;;;;3.72;1.58;;;;;;;;;;5072114;28;20052;-74
2022/10/19 13:53:55;;;;;;;4.13;2.00;;;;;;;;;;5052379;28;20056;-73
2022/10/19 13:56:44;;;;;;;4.88;1.75;;;;;;;;;;5071924;28;20048;-73
2022/10/19 13:59:17;;;;;;;4.03;1.92;;;;;;;;;;5072058;28;20044;-74
2022/10/19 14:02:10;;;;;;;5.10;2.13;;;;;;;;;;5071709;28;20060;-74
2022/10/19 14:04:55;;;;;;;3.50;1.70;;;;;;;;;;5055973;28;20052;-74
2022/10/19 14:07:24;;;;;;;3.72;1.50;;;;;;;;;;5071701;28;20067;-73
2022/10/19 14:09:51;;;;;;;4.45;1.70;;;;;;;;;;5071863;28;20051;-74
2022/10/19 14:12:24;;;;;;;4.28;1.35;;;;;;;;;;5071786;28;20412;-74
2022/10/19 14:14:52;;;;;;;2.58;1.65;;;;;;;;;;5071838;28;20048;-74
2022/10/19 14:17:20;;;;;;;5.50;1.67;;;;;;;;;;5071726;28;20063;-74
2022/10/19 14:19:49;;;;;;;4.35;1.60;;;;;;;;;;5071806;28;20047;-74
2022/10/19 14:22:24;;;;;;;4.22;1.58;;;;;;;;;;5071450;28;20051;-74
2022/10/19 14:24:58;;;;;;;3.25;1.75;;;;;;;;;;5071522;28;20455;-74
2022/10/19 14:27:24;;;;;;;3.65;1.63;;;;;;;;;;5071651;28;20404;-74
2022/10/19 14:29:51;;;;;;;3.00;1.45;;;;;;;;;;5071483;28;20059;-74
2022/10/19 14:32:21;;;;;;;3.60;1.50;;;;;;;;;;5071355;28;20484;-73
2022/10/19 14:34:47;;;;;;;3.75;1.63;;;;;;;;;;5071409;28;20048;-74
2022/10/19 14:37:24;;;;;;;4.30;1.60;;;;;;;;;;5071209;28;20063;-73
2022/10/19 14:40:20;;;;;;;2.78;1.38;;;;;;;;;;5071658;28;20044;-73
2022/10/19 14:42:53;;;;;;;3.17;1.40;;;;;;;;;;5064127;28;20120;-73
2022/10/19 14:45:27;;;;;;;5.00;1.83;;;;;;;;;;5074666;28;20051;-73
2022/10/19 14:47:58;;;;;;;5.72;1.80;;;;;;;;;;5075160;28;20049;-73
2022/10/19 14:50:26;;;;;;;7.78;1.75;;;;;;;;;;5075180;28;20403;-73
2022/10/19 14:52:57;;;;;;;4.10;1.65;;;;;;;;;;5075347;28;20040;-73
2022/10/19 14:55:25;;;;;;;5.60;2.20;;;;;;;;;;5075298;28;20051;-73